sensor_id;sensor_type;location;lat;lon;timestamp;temperature;humidity
30063;DHT22;16889;67.864;24.990;2022-10-31T00:00:19;-0.60;99.90
30063;DHT22;16889;67.864;24.990;2022-10-31T00:05:05;-0.60;99.90
30063;DHT22;16889;67.864;24.990;2022-10-31T00:09:51;-0.60;99.90
30063;DHT22;16889;67.864;24.990;2022-10-31T00:14:37;-0.70;99.90
30063;DHT22;16889;67.864;24.990;2022-10-31T00:19:23;-1.00;99.90
30063;DHT22;16889;67.864;24.990;2022-10-31T00:24:10;-1.20;99.90
30063;DHT22;16889;67.864;24.990;2022-10-31T00:28:57;-1.40;99.90
30063;DHT22;16889;67.864;24.990;2022-10-31T00:33:44;-1.40;99.90
30063;DHT22;16889;67.864;24.990;2022-10-31T00:38:30;-1.30;99.90
30063;DHT22;16889;67.864;24.990;2022-10-31T00:43:16;-1.30;99.90
30063;DHT22;16889;67.864;24.990;2022-10-31T00:48:03;-1.40;99.90
30063;DHT22;16889;67.864;24.990;2022-10-31T00:52:49;-1.30;99.90
30063;DHT22;16889;67.864;24.990;2022-10-31T00:57:35;-1.30;99.90
30063;DHT22;16889;67.864;24.990;2022-10-31T01:02:21;-1.30;99.90
30063;DHT22;16889;67.864;24.990;2022-10-31T01:07:07;-1.60;99.90
30063;DHT22;16889;67.864;24.990;2022-10-31T01:11:53;-1.60;99.90
30063;DHT22;16889;67.864;24.990;2022-10-31T01:16:39;-1.70;99.90
30063;DHT22;16889;67.864;24.990;2022-10-31T01:21:27;-1.80;99.90
30063;DHT22;16889;67.864;24.990;2022-10-31T01:26:28;-1.90;99.90
30063;DHT22;16889;67.864;24.990;2022-10-31T01:31:15;-1.70;99.90
30063;DHT22;16889;67.864;24.990;2022-10-31T01:36:10;-1.60;99.90
30063;DHT22;16889;67.864;24.990;2022-10-31T01:40:57;-1.70;99.90
30063;DHT22;16889;67.864;24.990;2022-10-31T01:45:47;-1.90;99.90
30063;DHT22;16889;67.864;24.990;2022-10-31T01:50:38;-2.00;99.90
30063;DHT22;16889;67.864;24.990;2022-10-31T01:55:26;-2.20;99.90
30063;DHT22;16889;67.864;24.990;2022-10-31T02:00:15;-2.20;99.90
30063;DHT22;16889;67.864;24.990;2022-10-31T02:05:05;-2.50;99.90
30063;DHT22;16889;67.864;24.990;2022-10-31T02:09:53;-2.60;99.90
30063;DHT22;16889;67.864;24.990;2022-10-31T02:14:41;-2.70;99.90
30063;DHT22;16889;67.864;24.990;2022-10-31T02:24:46;-3.20;99.90
30063;DHT22;16889;67.864;24.990;2022-10-31T02:30:04;-3.30;99.90
30063;DHT22;16889;67.864;24.990;2022-10-31T02:35:37;-3.50;99.90
30063;DHT22;16889;67.864;24.990;2022-10-31T02:45:49;-3.80;99.90
30063;DHT22;16889;67.864;24.990;2022-10-31T02:50:40;-3.90;99.90
30063;DHT22;16889;67.864;24.990;2022-10-31T03:00:13;-4.30;99.90
30063;DHT22;16889;67.864;24.990;2022-10-31T03:19:53;-4.50;99.90
30063;DHT22;16889;67.864;24.990;2022-10-31T03:24:40;-4.70;99.90
30063;DHT22;16889;67.864;24.990;2022-10-31T03:29:32;-4.60;99.90
30063;DHT22;16889;67.864;24.990;2022-10-31T03:34:20;-4.70;99.90
30063;DHT22;16889;67.864;24.990;2022-10-31T03:39:09;-4.80;99.90
30063;DHT22;16889;67.864;24.990;2022-10-31T03:44:03;-4.70;99.90
30063;DHT22;16889;67.864;24.990;2022-10-31T03:48:49;-4.90;99.90
30063;DHT22;16889;67.864;24.990;2022-10-31T03:53:44;-4.90;99.90
30063;DHT22;16889;67.864;24.990;2022-10-31T03:58:55;-4.80;99.90
30063;DHT22;16889;67.864;24.990;2022-10-31T04:03:44;-4.80;99.90
30063;DHT22;16889;67.864;24.990;2022-10-31T04:08:35;-4.80;99.90
30063;DHT22;16889;67.864;24.990;2022-10-31T04:13:33;-4.80;99.90
30063;DHT22;16889;67.864;24.990;2022-10-31T04:18:23;-4.90;99.90
30063;DHT22;16889;67.864;24.990;2022-10-31T04:23:22;-5.10;99.90
30063;DHT22;16889;67.864;24.990;2022-10-31T04:28:08;-5.20;99.90
30063;DHT22;16889;67.864;24.990;2022-10-31T04:32:54;-5.20;99.90
30063;DHT22;16889;67.864;24.990;2022-10-31T04:37:40;-5.30;99.90
30063;DHT22;16889;67.864;24.990;2022-10-31T04:42:29;-5.40;99.90
30063;DHT22;16889;67.864;24.990;2022-10-31T04:47:16;-5.50;99.90
30063;DHT22;16889;67.864;24.990;2022-10-31T04:52:02;-5.50;99.90
30063;DHT22;16889;67.864;24.990;2022-10-31T04:56:48;-5.50;99.90
30063;DHT22;16889;67.864;24.990;2022-10-31T05:01:34;-5.40;99.90
30063;DHT22;16889;67.864;24.990;2022-10-31T05:06:20;-5.50;99.90
30063;DHT22;16889;67.864;24.990;2022-10-31T05:11:06;-5.40;99.90
30063;DHT22;16889;67.864;24.990;2022-10-31T05:15:52;-5.40;99.90
30063;DHT22;16889;67.864;24.990;2022-10-31T05:20:38;-5.40;99.90
30063;DHT22;16889;67.864;24.990;2022-10-31T05:25:26;-5.40;99.90
30063;DHT22;16889;67.864;24.990;2022-10-31T05:30:16;-5.40;99.90
30063;DHT22;16889;67.864;24.990;2022-10-31T05:35:02;-5.40;99.90
30063;DHT22;16889;67.864;24.990;2022-10-31T05:39:48;-5.60;99.90
30063;DHT22;16889;67.864;24.990;2022-10-31T05:44:34;-5.70;99.90
30063;DHT22;16889;67.864;24.990;2022-10-31T05:49:20;-5.70;99.90
30063;DHT22;16889;67.864;24.990;2022-10-31T05:54:06;-5.80;99.90
30063;DHT22;16889;67.864;24.990;2022-10-31T05:58:52;-5.90;99.90
30063;DHT22;16889;67.864;24.990;2022-10-31T06:03:38;-6.10;99.90
30063;DHT22;16889;67.864;24.990;2022-10-31T06:08:24;-6.10;99.90
30063;DHT22;16889;67.864;24.990;2022-10-31T06:13:10;-6.20;99.90
30063;DHT22;16889;67.864;24.990;2022-10-31T06:18:03;-6.30;99.90
30063;DHT22;16889;67.864;24.990;2022-10-31T06:22:49;-6.30;99.90
30063;DHT22;16889;67.864;24.990;2022-10-31T06:27:35;-6.30;99.90
30063;DHT22;16889;67.864;24.990;2022-10-31T06:32:21;-6.30;99.90
30063;DHT22;16889;67.864;24.990;2022-10-31T06:37:09;-6.40;99.90
30063;DHT22;16889;67.864;24.990;2022-10-31T06:41:56;-6.50;99.90
30063;DHT22;16889;67.864;24.990;2022-10-31T06:46:42;-6.60;99.90
30063;DHT22;16889;67.864;24.990;2022-10-31T06:51:28;-6.80;99.90
30063;DHT22;16889;67.864;24.990;2022-10-31T06:56:14;-6.70;99.90
30063;DHT22;16889;67.864;24.990;2022-10-31T07:01:00;-6.70;99.90
30063;DHT22;16889;67.864;24.990;2022-10-31T07:05:46;-6.80;99.90
30063;DHT22;16889;67.864;24.990;2022-10-31T07:10:34;-6.60;99.90
30063;DHT22;16889;67.864;24.990;2022-10-31T07:15:20;-6.50;99.90
30063;DHT22;16889;67.864;24.990;2022-10-31T07:20:07;-6.50;99.90
30063;DHT22;16889;67.864;24.990;2022-10-31T07:24:53;-6.50;99.90
30063;DHT22;16889;67.864;24.990;2022-10-31T07:29:39;-6.60;99.90
30063;DHT22;16889;67.864;24.990;2022-10-31T07:34:25;-6.60;99.90
30063;DHT22;16889;67.864;24.990;2022-10-31T07:39:11;-6.50;99.90
30063;DHT22;16889;67.864;24.990;2022-10-31T07:43:57;-6.50;99.90
30063;DHT22;16889;67.864;24.990;2022-10-31T07:48:43;-6.50;99.90
30063;DHT22;16889;67.864;24.990;2022-10-31T07:53:29;-6.40;99.90
30063;DHT22;16889;67.864;24.990;2022-10-31T07:58:16;-6.30;99.90
30063;DHT22;16889;67.864;24.990;2022-10-31T08:03:03;-6.20;99.90
30063;DHT22;16889;67.864;24.990;2022-10-31T08:07:50;-6.30;99.90
30063;DHT22;16889;67.864;24.990;2022-10-31T08:12:36;-6.10;99.90
30063;DHT22;16889;67.864;24.990;2022-10-31T08:17:22;-6.00;99.90
30063;DHT22;16889;67.864;24.990;2022-10-31T08:22:08;-5.90;99.90
30063;DHT22;16889;67.864;24.990;2022-10-31T08:26:54;-5.90;99.90
30063;DHT22;16889;67.864;24.990;2022-10-31T08:31:40;-5.70;99.90
30063;DHT22;16889;67.864;24.990;2022-10-31T08:36:27;-5.50;99.90
30063;DHT22;16889;67.864;24.990;2022-10-31T08:41:14;-5.40;99.90
30063;DHT22;16889;67.864;24.990;2022-10-31T08:46:00;-5.30;99.90
30063;DHT22;16889;67.864;24.990;2022-10-31T08:50:47;-5.20;99.90
30063;DHT22;16889;67.864;24.990;2022-10-31T08:55:34;-5.00;99.90
30063;DHT22;16889;67.864;24.990;2022-10-31T09:00:21;-4.80;99.90
30063;DHT22;16889;67.864;24.990;2022-10-31T09:05:07;-4.60;99.90
30063;DHT22;16889;67.864;24.990;2022-10-31T09:09:53;-4.40;99.90
30063;DHT22;16889;67.864;24.990;2022-10-31T09:14:41;-4.20;99.90
30063;DHT22;16889;67.864;24.990;2022-10-31T09:19:27;-3.90;99.90
30063;DHT22;16889;67.864;24.990;2022-10-31T09:24:13;-3.70;99.90
30063;DHT22;16889;67.864;24.990;2022-10-31T09:28:59;-3.80;99.90
30063;DHT22;16889;67.864;24.990;2022-10-31T09:33:47;-3.50;99.90
30063;DHT22;16889;67.864;24.990;2022-10-31T09:38:33;-3.30;99.90
30063;DHT22;16889;67.864;24.990;2022-10-31T09:43:25;-3.10;99.90
30063;DHT22;16889;67.864;24.990;2022-10-31T09:53:26;-2.40;99.90
30063;DHT22;16889;67.864;24.990;2022-10-31T09:58:23;-2.40;99.90
30063;DHT22;16889;67.864;24.990;2022-10-31T10:08:20;-2.00;99.90
30063;DHT22;16889;67.864;24.990;2022-10-31T10:13:35;-1.50;99.90
30063;DHT22;16889;67.864;24.990;2022-10-31T10:18:40;-1.20;99.90
30063;DHT22;16889;67.864;24.990;2022-10-31T10:28:41;-0.90;99.90
30063;DHT22;16889;67.864;24.990;2022-10-31T10:33:30;-1.10;99.90
30063;DHT22;16889;67.864;24.990;2022-10-31T10:39:14;-1.50;99.90
30063;DHT22;16889;67.864;24.990;2022-10-31T10:43:35;-1.30;99.90
30063;DHT22;16889;67.864;24.990;2022-10-31T10:58:44;-1.20;99.90
30063;DHT22;16889;67.864;24.990;2022-10-31T11:03:35;-1.50;99.90
30063;DHT22;16889;67.864;24.990;2022-10-31T11:08:28;-1.50;99.90
30063;DHT22;16889;67.864;24.990;2022-10-31T11:18:03;-1.70;99.90
30063;DHT22;16889;67.864;24.990;2022-10-31T11:23:01;-1.60;99.90
30063;DHT22;16889;67.864;24.990;2022-10-31T11:27:58;-1.50;99.90
30063;DHT22;16889;67.864;24.990;2022-10-31T11:32:48;-1.50;99.90
30063;DHT22;16889;67.864;24.990;2022-10-31T11:37:41;-1.50;99.90
30063;DHT22;16889;67.864;24.990;2022-10-31T11:42:40;-1.50;99.90
30063;DHT22;16889;67.864;24.990;2022-10-31T11:47:30;-1.40;99.90
30063;DHT22;16889;67.864;24.990;2022-10-31T11:52:26;-1.40;99.90
30063;DHT22;16889;67.864;24.990;2022-10-31T11:57:33;-1.50;99.90
30063;DHT22;16889;67.864;24.990;2022-10-31T12:02:27;-1.40;99.90
30063;DHT22;16889;67.864;24.990;2022-10-31T12:07:13;-1.30;99.90
30063;DHT22;16889;67.864;24.990;2022-10-31T12:27:06;-1.30;99.90
30063;DHT22;16889;67.864;24.990;2022-10-31T12:32:08;-1.40;99.90
30063;DHT22;16889;67.864;24.990;2022-10-31T12:52:31;-2.00;99.90
30063;DHT22;16889;67.864;24.990;2022-10-31T12:57:31;-2.00;99.90
30063;DHT22;16889;67.864;24.990;2022-10-31T13:12:15;-2.30;99.90
30063;DHT22;16889;67.864;24.990;2022-10-31T13:17:02;-2.40;99.90
30063;DHT22;16889;67.864;24.990;2022-10-31T13:22:12;-2.50;99.90
30063;DHT22;16889;67.864;24.990;2022-10-31T13:26:59;-2.60;99.90
30063;DHT22;16889;67.864;24.990;2022-10-31T13:31:47;-2.80;99.90
30063;DHT22;16889;67.864;24.990;2022-10-31T13:36:48;-2.80;99.90
30063;DHT22;16889;67.864;24.990;2022-10-31T13:41:44;-2.90;99.90
30063;DHT22;16889;67.864;24.990;2022-10-31T13:51:31;-3.20;99.90
30063;DHT22;16889;67.864;24.990;2022-10-31T14:01:18;-3.40;99.90
30063;DHT22;16889;67.864;24.990;2022-10-31T14:06:08;-3.50;99.90
30063;DHT22;16889;67.864;24.990;2022-10-31T14:10:56;-3.60;99.90
30063;DHT22;16889;67.864;24.990;2022-10-31T14:20:46;-3.60;99.90
30063;DHT22;16889;67.864;24.990;2022-10-31T14:25:35;-3.90;99.90
30063;DHT22;16889;67.864;24.990;2022-10-31T14:30:26;-3.70;99.90
30063;DHT22;16889;67.864;24.990;2022-10-31T14:35:16;-3.80;99.90
30063;DHT22;16889;67.864;24.990;2022-10-31T14:55:18;-4.20;99.90
30063;DHT22;16889;67.864;24.990;2022-10-31T15:00:07;-4.50;99.90
30063;DHT22;16889;67.864;24.990;2022-10-31T15:04:58;-4.60;99.90
30063;DHT22;16889;67.864;24.990;2022-10-31T15:09:44;-4.50;99.90
30063;DHT22;16889;67.864;24.990;2022-10-31T15:14:40;-4.50;99.90
30063;DHT22;16889;67.864;24.990;2022-10-31T15:19:30;-4.30;99.90
30063;DHT22;16889;67.864;24.990;2022-10-31T15:24:17;-4.30;99.90
30063;DHT22;16889;67.864;24.990;2022-10-31T15:29:10;-4.20;99.90
30063;DHT22;16889;67.864;24.990;2022-10-31T15:34:02;-4.10;99.90
30063;DHT22;16889;67.864;24.990;2022-10-31T15:38:50;-3.90;99.90
30063;DHT22;16889;67.864;24.990;2022-10-31T15:43:37;-3.70;99.90
30063;DHT22;16889;67.864;24.990;2022-10-31T15:48:26;-3.60;99.90
30063;DHT22;16889;67.864;24.990;2022-10-31T15:53:37;-3.50;99.90
30063;DHT22;16889;67.864;24.990;2022-10-31T15:58:24;-3.40;99.90
30063;DHT22;16889;67.864;24.990;2022-10-31T16:13:08;-3.00;99.90
30063;DHT22;16889;67.864;24.990;2022-10-31T16:17:54;-2.80;99.90
30063;DHT22;16889;67.864;24.990;2022-10-31T16:22:40;-2.50;99.90
30063;DHT22;16889;67.864;24.990;2022-10-31T16:27:29;-2.40;99.90
30063;DHT22;16889;67.864;24.990;2022-10-31T16:32:32;-2.30;99.90
30063;DHT22;16889;67.864;24.990;2022-10-31T16:37:18;-2.40;99.90
30063;DHT22;16889;67.864;24.990;2022-10-31T16:42:04;-2.30;99.90
30063;DHT22;16889;67.864;24.990;2022-10-31T16:47:13;-2.20;99.90
30063;DHT22;16889;67.864;24.990;2022-10-31T16:52:00;-2.20;99.90
30063;DHT22;16889;67.864;24.990;2022-10-31T16:56:46;-2.10;99.90
30063;DHT22;16889;67.864;24.990;2022-10-31T17:01:32;-2.00;99.90
30063;DHT22;16889;67.864;24.990;2022-10-31T17:06:20;-1.90;99.90
30063;DHT22;16889;67.864;24.990;2022-10-31T17:11:13;-1.90;99.90
30063;DHT22;16889;67.864;24.990;2022-10-31T17:16:01;-1.90;99.90
30063;DHT22;16889;67.864;24.990;2022-10-31T17:20:47;-1.90;99.90
30063;DHT22;16889;67.864;24.990;2022-10-31T17:25:34;-1.80;99.90
30063;DHT22;16889;67.864;24.990;2022-10-31T17:30:21;-1.70;99.90
30063;DHT22;16889;67.864;24.990;2022-10-31T17:35:08;-1.60;99.90
30063;DHT22;16889;67.864;24.990;2022-10-31T17:39:55;-1.50;99.90
30063;DHT22;16889;67.864;24.990;2022-10-31T17:44:41;-1.50;99.90
30063;DHT22;16889;67.864;24.990;2022-10-31T17:49:27;-1.50;99.90
30063;DHT22;16889;67.864;24.990;2022-10-31T17:54:13;-1.40;99.90
30063;DHT22;16889;67.864;24.990;2022-10-31T17:59:03;-1.30;99.90
30063;DHT22;16889;67.864;24.990;2022-10-31T18:03:49;-1.20;99.90
30063;DHT22;16889;67.864;24.990;2022-10-31T18:08:37;-1.20;99.90
30063;DHT22;16889;67.864;24.990;2022-10-31T18:13:23;-1.10;99.90
30063;DHT22;16889;67.864;24.990;2022-10-31T18:18:09;-1.10;99.90
30063;DHT22;16889;67.864;24.990;2022-10-31T18:22:55;-1.00;99.90
30063;DHT22;16889;67.864;24.990;2022-10-31T18:27:41;-0.90;99.90
30063;DHT22;16889;67.864;24.990;2022-10-31T18:32:27;-0.90;99.90
30063;DHT22;16889;67.864;24.990;2022-10-31T18:37:13;-0.90;99.90
30063;DHT22;16889;67.864;24.990;2022-10-31T18:41:59;-0.90;99.90
30063;DHT22;16889;67.864;24.990;2022-10-31T18:46:45;-0.70;99.90
30063;DHT22;16889;67.864;24.990;2022-10-31T18:51:31;-0.70;99.90
30063;DHT22;16889;67.864;24.990;2022-10-31T18:56:17;-0.50;99.90
30063;DHT22;16889;67.864;24.990;2022-10-31T19:01:10;-0.40;99.90
30063;DHT22;16889;67.864;24.990;2022-10-31T19:05:56;-0.50;99.90
30063;DHT22;16889;67.864;24.990;2022-10-31T19:10:42;-0.30;99.90
30063;DHT22;16889;67.864;24.990;2022-10-31T19:15:28;-0.30;99.90
30063;DHT22;16889;67.864;24.990;2022-10-31T19:20:15;-0.40;99.90
30063;DHT22;16889;67.864;24.990;2022-10-31T19:25:01;-0.50;99.90
30063;DHT22;16889;67.864;24.990;2022-10-31T19:29:47;-0.30;99.90
30063;DHT22;16889;67.864;24.990;2022-10-31T19:34:33;-0.30;99.90
30063;DHT22;16889;67.864;24.990;2022-10-31T19:39:19;-0.30;99.90
30063;DHT22;16889;67.864;24.990;2022-10-31T19:44:05;-0.30;99.90
30063;DHT22;16889;67.864;24.990;2022-10-31T19:48:51;-0.40;99.90
30063;DHT22;16889;67.864;24.990;2022-10-31T19:53:38;-0.30;99.90
30063;DHT22;16889;67.864;24.990;2022-10-31T19:58:24;-0.30;99.90
30063;DHT22;16889;67.864;24.990;2022-10-31T20:03:10;-0.30;99.90
30063;DHT22;16889;67.864;24.990;2022-10-31T20:07:57;-0.20;99.90
30063;DHT22;16889;67.864;24.990;2022-10-31T20:12:43;-0.30;99.90
30063;DHT22;16889;67.864;24.990;2022-10-31T20:17:29;-0.30;99.90
30063;DHT22;16889;67.864;24.990;2022-10-31T20:22:15;-0.30;99.90
30063;DHT22;16889;67.864;24.990;2022-10-31T20:27:01;-0.30;99.90
30063;DHT22;16889;67.864;24.990;2022-10-31T20:31:49;-0.30;99.90
30063;DHT22;16889;67.864;24.990;2022-10-31T20:36:35;-0.30;99.90
30063;DHT22;16889;67.864;24.990;2022-10-31T20:41:21;-0.40;99.90
30063;DHT22;16889;67.864;24.990;2022-10-31T20:46:11;-0.50;99.90
30063;DHT22;16889;67.864;24.990;2022-10-31T20:50:59;-0.40;99.90
30063;DHT22;16889;67.864;24.990;2022-10-31T20:55:46;-0.40;99.90
30063;DHT22;16889;67.864;24.990;2022-10-31T21:00:32;-0.50;99.90
30063;DHT22;16889;67.864;24.990;2022-10-31T21:05:18;-0.40;99.90
30063;DHT22;16889;67.864;24.990;2022-10-31T21:10:04;-0.40;99.90
30063;DHT22;16889;67.864;24.990;2022-10-31T21:14:59;-0.20;99.90
30063;DHT22;16889;67.864;24.990;2022-10-31T21:19:45;-0.10;99.90
30063;DHT22;16889;67.864;24.990;2022-10-31T21:24:31;-0.20;99.90
30063;DHT22;16889;67.864;24.990;2022-10-31T21:29:18;-0.20;99.90
30063;DHT22;16889;67.864;24.990;2022-10-31T21:34:06;-0.10;99.90
30063;DHT22;16889;67.864;24.990;2022-10-31T21:38:53;-0.10;99.90
30063;DHT22;16889;67.864;24.990;2022-10-31T21:43:42;0.00;99.90
30063;DHT22;16889;67.864;24.990;2022-10-31T21:48:28;-0.10;99.90
30063;DHT22;16889;67.864;24.990;2022-10-31T21:53:14;0.00;99.90
30063;DHT22;16889;67.864;24.990;2022-10-31T21:58:30;0.00;99.90
30063;DHT22;16889;67.864;24.990;2022-10-31T22:03:16;0.00;99.90
30063;DHT22;16889;67.864;24.990;2022-10-31T22:08:02;-0.10;99.90
30063;DHT22;16889;67.864;24.990;2022-10-31T22:12:48;0.00;99.90
30063;DHT22;16889;67.864;24.990;2022-10-31T22:17:34;0.10;99.90
30063;DHT22;16889;67.864;24.990;2022-10-31T22:22:20;0.10;99.90
30063;DHT22;16889;67.864;24.990;2022-10-31T22:27:06;0.10;99.90
30063;DHT22;16889;67.864;24.990;2022-10-31T22:31:52;-0.10;99.90
30063;DHT22;16889;67.864;24.990;2022-10-31T22:36:38;-0.30;99.90
30063;DHT22;16889;67.864;24.990;2022-10-31T22:41:29;-0.30;99.90
30063;DHT22;16889;67.864;24.990;2022-10-31T22:46:19;-0.10;99.90
30063;DHT22;16889;67.864;24.990;2022-10-31T22:51:10;0.00;99.90
30063;DHT22;16889;67.864;24.990;2022-10-31T22:55:57;0.10;99.90
30063;DHT22;16889;67.864;24.990;2022-10-31T23:00:43;0.20;99.90
30063;DHT22;16889;67.864;24.990;2022-10-31T23:05:29;0.10;99.90
30063;DHT22;16889;67.864;24.990;2022-10-31T23:10:16;0.20;99.90
30063;DHT22;16889;67.864;24.990;2022-10-31T23:15:02;0.20;99.90
30063;DHT22;16889;67.864;24.990;2022-10-31T23:19:48;0.30;99.90
30063;DHT22;16889;67.864;24.990;2022-10-31T23:24:35;0.30;99.90
30063;DHT22;16889;67.864;24.990;2022-10-31T23:29:22;0.40;99.90
30063;DHT22;16889;67.864;24.990;2022-10-31T23:34:08;0.40;99.90
30063;DHT22;16889;67.864;24.990;2022-10-31T23:38:54;0.40;99.90
30063;DHT22;16889;67.864;24.990;2022-10-31T23:43:40;0.40;99.90
30063;DHT22;16889;67.864;24.990;2022-10-31T23:48:26;0.40;99.90
30063;DHT22;16889;67.864;24.990;2022-10-31T23:53:12;0.50;99.90
30063;DHT22;16889;67.864;24.990;2022-10-31T23:57:58;0.40;99.90
